Date,TemperatureHighF,TemperatureAvgF,TemperatureLowF,DewpointHighF,DewpointAvgF,DewpointLowF,HumidityHigh,HumidityAvg,HumidityLow,PressureMaxIn,PressureMinIn,WindSpeedMaxMPH,WindSpeedAvgMPH,GustSpeedMaxMPH,PrecipitationSumIn
2013-6-1,95.9,81.5,65.2,68.8,64.1,56.1,92,60,27,29.90,29.78,3,1,14,0.00
2013-6-2,91.6,78.5,68.4,69.5,65.9,59.3,91,68,35,29.81,29.64,6,2,20,0.00
2013-6-3,78.6,68.2,58.9,67.3,62.0,46.0,96,82,55,29.79,29.69,2,0,10,0.00
2013-6-4,73.2,62.4,48.5,48.6,44.7,41.5,81,55,33,30.04,29.77,4,1,12,0.00
2013-6-5,78.5,65.8,48.5,51.8,46.3,40.6,91,54,27,30.14,30.03,2,0,8,0.00
2013-6-6,75.4,64.0,52.6,54.9,50.4,46.1,91,63,38,30.13,30.04,3,0,11,0.00
2013-6-7,58.7,54.8,52.3,55.7,53.4,51.5,98,95,81,30.05,29.78,3,1,7,0.00
2013-6-8,80.1,64.0,52.0,64.8,57.4,51.5,99,82,53,29.93,29.58,2,1,11,0.00
2013-6-9,83.6,69.2,55.0,58.4,55.9,51.7,97,67,34,30.10,29.94,3,1,11,0.00
2013-6-10,68.4,62.0,54.7,59.1,56.5,52.8,97,83,65,30.15,29.97,2,1,10,0.00
2013-6-11,63.1,57.5,54.7,58.4,55.9,54.1,98,94,80,29.97,29.53,3,1,7,0.00
2013-6-12,74.0,63.0,55.4,59.2,54.7,51.8,98,76,51,29.76,29.50,5,1,20,0.00
2013-6-13,66.9,56.8,50.7,57.6,53.3,49.3,97,89,65,29.75,29.64,2,0,6,0.00
2013-6-14,76.5,61.1,51.1,59.5,53.9,50.0,98,80,40,29.71,29.60,2,0,7,0.00
2013-6-15,82.4,67.7,54.2,55.1,48.1,41.1,87,55,25,29.87,29.71,3,1,13,0.00
2013-6-16,79.9,65.9,53.2,60.1,53.7,48.0,90,67,35,29.87,29.64,3,0,11,0.00
2013-6-17,89.0,68.8,57.6,68.4,59.9,55.7,97,77,36,29.84,29.71,3,1,12,0.04
2013-6-18,75.1,62.5,57.2,63.8,59.3,56.4,98,90,62,29.89,29.83,2,0,8,0.00
2013-6-19,78.3,65.1,55.4,58.8,52.5,42.9,98,69,30,30.09,29.86,2,0,7,0.00
2013-6-20,81.2,65.8,49.1,56.1,50.1,43.8,95,62,29,30.20,30.09,2,0,10,0.00
2013-6-21,88.2,72.6,56.0,63.2,56.0,49.5,91,61,27,30.18,30.13,2,0,8,0.00
2013-6-22,85.7,73.1,59.8,64.8,60.6,57.4,95,68,42,30.16,30.04,3,1,13,0.00
2013-6-23,91.8,77.6,63.7,72.1,65.1,57.9,86,67,48,30.09,29.92,3,1,14,0.00
2013-6-24,97.1,80.7,69.3,73.3,68.9,64.0,94,70,42,29.95,29.80,2,0,12,0.00
2013-6-25,94.5,79.7,68.1,72.2,67.7,64.7,93,70,40,29.86,29.65,3,1,10,0.00
2013-6-26,87.6,74.3,68.3,75.9,69.0,66.0,95,84,55,29.79,29.65,2,0,7,0.00
2013-6-27,73.5,65.4,60.7,67.6,63.6,60.1,98,94,77,29.81,29.70,2,0,5,0.00
2013-6-28,83.2,69.2,57.8,73.9,65.8,57.2,99,90,66,29.71,29.42,4,1,13,0.00
2013-6-29,85.5,75.5,70.1,69.8,67.9,65.2,96,79,53,29.65,29.44,3,1,13,0.00
2013-6-30,87.4,76.6,66.4,71.9,68.5,65.2,97,78,52,29.86,29.65,4,1,12,0.00